Time;durP1;ratioP1;P1;durP2;ratioP2;P2;SDS_P1;SDS_P2;PMS_P1;PMS_P2;Temp;Humidity;BMP_temperature;BMP_pressure;BME280_temperature;BME280_humidity;BME280_pressure;Samples;Min_cycle;Max_cycle;Signal;HPM_P1;HPM_P2
2023/07/17 00:01:03;;;;;;;7.68;7.10;;;23.80;99.90;;;;;;5078858;28;20198;-77
2023/07/17 00:03:28;;;;;;;7.63;7.07;;;23.70;99.90;;;;;;5078559;28;20186;-76
2023/07/17 00:05:57;;;;;;;7.82;7.00;;;23.70;99.90;;;;;;5080083;28;20175;-77
2023/07/17 00:08:23;;;;;;;7.85;7.22;;;23.80;99.90;;;;;;5080822;28;20172;-79
2023/07/17 00:10:49;;;;;;;8.90;7.22;;;23.70;99.90;;;;;;5082468;28;20275;-77
2023/07/17 00:13:15;;;;;;;7.38;6.75;;;23.70;99.90;;;;;;5085694;28;20234;-78
2023/07/17 00:15:41;;;;;;;7.50;6.80;;;23.60;99.90;;;;;;5077609;28;20209;-76
2023/07/17 00:18:07;;;;;;;7.90;7.10;;;23.60;99.90;;;;;;5077516;28;20171;-77
2023/07/17 00:20:32;;;;;;;7.57;6.90;;;23.60;99.90;;;;;;5077674;28;20254;-77
2023/07/17 00:22:58;;;;;;;6.40;6.00;;;23.50;99.90;;;;;;5077332;28;20217;-76
2023/07/17 00:25:24;;;;;;;6.63;6.22;;;23.50;99.90;;;;;;5083726;28;20197;-76
2023/07/17 00:27:50;;;;;;;6.93;6.30;;;23.50;99.90;;;;;;5076767;28;20212;-79
2023/07/17 00:30:16;;;;;;;6.93;6.32;;;23.40;99.90;;;;;;5074405;28;20550;-77
2023/07/17 00:32:41;;;;;;;7.63;6.93;;;23.40;99.90;;;;;;5075918;28;20183;-77
2023/07/17 00:35:08;;;;;;;6.70;6.20;;;23.30;99.90;;;;;;5082360;28;20206;-75
2023/07/17 00:37:34;;;;;;;7.35;6.20;;;23.30;99.90;;;;;;5082697;28;20175;-75
2023/07/17 00:40:00;;;;;;;7.07;6.57;;;23.30;99.90;;;;;;5076374;28;20526;-78
2023/07/17 00:42:25;;;;;;;6.72;5.95;;;23.30;99.90;;;;;;5075250;28;20179;-76
2023/07/17 00:44:51;;;;;;;6.90;6.43;;;23.30;99.90;;;;;;5082994;28;20193;-76
2023/07/17 00:47:17;;;;;;;7.15;6.65;;;23.30;99.90;;;;;;5089932;28;20175;-80
2023/07/17 00:49:44;;;;;;;7.07;6.55;;;23.40;99.90;;;;;;5075276;28;20183;-76
2023/07/17 00:52:11;;;;;;;6.95;6.45;;;23.40;99.90;;;;;;5074133;28;20167;-79
2023/07/17 00:54:40;;;;;;;7.45;6.85;;;23.40;99.90;;;;;;5073721;28;20227;-77
2023/07/17 00:57:08;;;;;;;9.18;7.32;;;23.30;99.90;;;;;;5074655;28;20196;-79
2023/07/17 00:59:34;;;;;;;7.97;6.97;;;23.40;99.90;;;;;;5074823;28;20191;-78
2023/07/17 01:02:01;;;;;;;7.90;7.37;;;23.40;99.90;;;;;;5073786;28;20182;-77
2023/07/17 01:04:27;;;;;;;7.68;7.07;;;23.40;99.90;;;;;;5075047;28;20179;-78
2023/07/17 01:06:53;;;;;;;7.43;6.63;;;23.30;99.90;;;;;;5084517;28;20179;-76
2023/07/17 01:09:20;;;;;;;7.90;7.22;;;23.40;99.90;;;;;;5091077;28;20217;-78
2023/07/17 01:11:46;;;;;;;7.78;7.03;;;23.30;99.90;;;;;;5075976;28;20185;-79
2023/07/17 01:14:16;;;;;;;8.13;7.20;;;23.30;99.90;;;;;;5078980;28;20258;-77
2023/07/17 01:16:43;;;;;;;8.20;7.60;;;23.30;99.90;;;;;;5079726;28;20586;-79
2023/07/17 01:19:08;;;;;;;7.65;6.95;;;23.30;99.90;;;;;;5074700;28;20178;-77
2023/07/17 01:21:39;;;;;;;8.35;7.65;;;23.30;99.90;;;;;;5076461;28;20167;-77
2023/07/17 01:24:05;;;;;;;7.93;7.20;;;23.30;99.90;;;;;;5076068;28;20212;-78
2023/07/17 01:26:30;;;;;;;8.23;7.43;;;23.30;99.90;;;;;;5073847;28;20253;-79
2023/07/17 01:28:56;;;;;;;8.10;7.30;;;23.20;99.90;;;;;;5074394;28;20572;-78
2023/07/17 01:31:22;;;;;;;7.43;6.80;;;23.20;99.90;;;;;;5074732;28;20555;-75
2023/07/17 01:33:47;;;;;;;8.05;7.43;;;23.20;99.90;;;;;;5075425;28;20168;-76
2023/07/17 01:36:15;;;;;;;7.93;7.33;;;23.20;99.90;;;;;;5074584;28;20206;-77
2023/07/17 01:38:40;;;;;;;8.37;7.77;;;23.20;99.90;;;;;;5074935;28;20163;-77
2023/07/17 01:41:06;;;;;;;7.70;7.07;;;23.20;99.90;;;;;;5074692;28;20251;-79
2023/07/17 01:43:32;;;;;;;8.20;7.50;;;23.20;99.90;;;;;;5074290;28;20262;-77
2023/07/17 01:45:57;;;;;;;8.93;8.13;;;23.20;99.90;;;;;;5073968;28;20202;-77
2023/07/17 01:48:23;;;;;;;8.60;7.90;;;23.10;99.90;;;;;;5074431;28;20600;-79
2023/07/17 01:50:49;;;;;;;7.67;7.07;;;23.10;99.90;;;;;;5074242;28;20174;-77
2023/07/17 01:53:21;;;;;;;8.47;7.70;;;23.10;99.90;;;;;;5072588;28;20287;-77
2023/07/17 01:55:47;;;;;;;8.95;8.18;;;23.00;99.90;;;;;;5074101;28;20195;-79
2023/07/17 01:58:14;;;;;;;8.70;7.90;;;23.00;99.90;;;;;;5074221;28;20163;-76
2023/07/17 02:00:40;;;;;;;7.87;7.30;;;23.00;99.90;;;;;;5074505;28;20176;-79
2023/07/17 02:03:06;;;;;;;8.23;7.57;;;23.00;99.90;;;;;;5085714;28;20222;-78
2023/07/17 02:05:32;;;;;;;7.77;6.97;;;22.90;99.90;;;;;;5079737;28;20228;-76
2023/07/17 02:07:57;;;;;;;8.10;7.30;;;22.90;99.90;;;;;;5075474;28;20171;-76
2023/07/17 02:10:23;;;;;;;7.90;7.20;;;22.90;99.90;;;;;;5075095;28;20179;-79
2023/07/17 02:12:49;;;;;;;7.97;7.13;;;22.80;99.90;;;;;;5074235;28;20179;-76
2023/07/17 02:15:15;;;;;;;8.10;7.37;;;22.80;99.90;;;;;;5082988;28;20606;-75
2023/07/17 02:17:40;;;;;;;8.47;7.70;;;22.80;99.90;;;;;;5080080;28;20668;-76
2023/07/17 02:20:09;;;;;;;7.80;7.20;;;22.80;99.90;;;;;;5075720;28;20534;-77
2023/07/17 02:22:36;;;;;;;8.10;7.33;;;22.70;99.90;;;;;;5076791;28;20174;-79
2023/07/17 02:25:05;;;;;;;7.57;6.97;;;22.70;99.90;;;;;;5076736;28;20175;-76
2023/07/17 02:27:32;;;;;;;7.63;7.00;;;22.70;99.90;;;;;;5076569;28;20175;-76
2023/07/17 02:29:59;;;;;;;7.23;6.73;;;22.60;99.90;;;;;;5094746;28;20148;-78
2023/07/17 02:32:28;;;;;;;7.03;6.33;;;22.60;99.90;;;;;;5079823;28;20205;-76
2023/07/17 02:34:54;;;;;;;7.57;6.97;;;22.50;99.90;;;;;;5074026;28;20198;-77
2023/07/17 02:37:20;;;;;;;7.63;7.03;;;22.50;99.90;;;;;;5082623;28;20179;-78
2023/07/17 02:39:46;;;;;;;8.23;7.43;;;22.50;99.90;;;;;;5087061;28;20324;-77
2023/07/17 02:42:12;;;;;;;8.47;7.77;;;22.50;99.90;;;;;;5074030;28;20304;-76
2023/07/17 02:44:37;;;;;;;7.83;7.23;;;22.50;99.90;;;;;;5078618;28;20175;-78
2023/07/17 02:47:03;;;;;;;8.03;7.43;;;22.60;99.90;;;;;;5074098;28;20178;-78
2023/07/17 02:49:30;;;;;;;8.43;7.80;;;22.60;99.90;;;;;;5073888;28;20171;-78
2023/07/17 02:51:55;;;;;;;8.20;7.60;;;22.70;99.90;;;;;;5074106;28;20195;-79
2023/07/17 02:54:22;;;;;;;8.83;8.03;;;22.70;99.90;;;;;;5073833;28;20259;-76
2023/07/17 02:56:48;;;;;;;8.80;8.00;;;22.70;99.90;;;;;;5078693;28;20179;-77
2023/07/17 02:59:14;;;;;;;9.20;7.83;;;22.70;99.90;;;;;;5086654;28;20187;-77
2023/07/17 03:01:40;;;;;;;8.27;7.47;;;22.80;99.90;;;;;;5079994;28;20266;-78
2023/07/17 03:04:07;;;;;;;9.47;8.60;;;22.80;99.90;;;;;;5076543;28;20578;-77
2023/07/17 03:06:32;;;;;;;9.17;8.40;;;22.80;99.90;;;;;;5073535;28;20260;-77
2023/07/17 03:08:58;;;;;;;8.63;7.97;;;22.80;99.90;;;;;;5073271;28;20199;-78
2023/07/17 03:11:24;;;;;;;9.23;8.27;;;22.80;99.90;;;;;;5072813;28;20193;-78
2023/07/17 03:13:50;;;;;;;9.57;8.30;;;22.80;99.90;;;;;;5072719;28;20590;-78
2023/07/17 03:16:16;;;;;;;9.07;8.37;;;22.80;99.90;;;;;;5076089;28;20293;-78
2023/07/17 03:18:41;;;;;;;9.00;8.30;;;22.80;99.90;;;;;;5076524;28;20703;-80
2023/07/17 03:21:07;;;;;;;9.23;8.43;;;22.90;99.90;;;;;;5077474;28;20175;-75
2023/07/17 03:23:33;;;;;;;9.27;8.43;;;22.90;99.90;;;;;;5078109;28;20179;-77
2023/07/17 03:25:59;;;;;;;9.90;8.30;;;22.90;99.90;;;;;;5078406;28;20171;-77
2023/07/17 03:28:26;;;;;;;9.20;8.30;;;22.90;99.90;;;;;;5063420;28;20193;-78
2023/07/17 03:30:52;;;;;;;8.83;8.07;;;22.90;99.90;;;;;;5083983;28;20572;-77
2023/07/17 03:33:18;;;;;;;8.70;8.00;;;22.90;99.90;;;;;;5082342;28;20179;-77
2023/07/17 03:35:44;;;;;;;9.47;8.63;;;22.80;99.90;;;;;;5078165;28;20203;-78
2023/07/17 03:38:09;;;;;;;9.43;8.53;;;22.90;99.90;;;;;;5077331;28;20182;-77
2023/07/17 03:40:35;;;;;;;9.50;8.80;;;22.90;99.90;;;;;;5078423;28;20183;-74
2023/07/17 03:43:01;;;;;;;8.70;7.83;;;23.00;99.90;;;;;;5080425;28;20214;-76
2023/07/17 03:45:26;;;;;;;9.30;8.38;;;23.00;99.90;;;;;;5077821;28;20178;-76
2023/07/17 03:47:52;;;;;;;8.60;8.00;;;23.00;99.90;;;;;;5077426;28;20198;-76
2023/07/17 03:50:18;;;;;;;8.30;7.70;;;23.00;99.90;;;;;;5076732;28;20183;-78
2023/07/17 03:52:44;;;;;;;8.43;7.77;;;23.00;99.90;;;;;;5077890;28;20245;-77
2023/07/17 03:55:10;;;;;;;8.90;8.13;;;23.00;99.90;;;;;;5092064;28;20242;-78
2023/07/17 03:57:36;;;;;;;8.90;8.10;;;23.00;99.90;;;;;;5077441;28;20172;-79
2023/07/17 04:00:01;;;;;;;8.97;7.70;;;23.00;99.90;;;;;;5078806;28;20256;-78
2023/07/17 04:02:27;;;;;;;9.00;8.10;;;23.00;99.90;;;;;;5076770;28;20167;-79
2023/07/17 04:04:53;;;;;;;10.57;8.47;;;23.00;99.90;;;;;;5077892;28;20601;-78
2023/07/17 04:07:19;;;;;;;8.70;7.87;;;23.00;99.90;;;;;;5076271;28;20167;-77
2023/07/17 04:09:45;;;;;;;7.72;7.07;;;23.10;99.90;;;;;;5077777;28;20181;-76
2023/07/17 04:12:11;;;;;;;8.88;8.18;;;23.10;99.90;;;;;;5079835;28;20175;-78
2023/07/17 04:14:37;;;;;;;8.30;7.47;;;23.10;99.90;;;;;;5076883;28;20171;-77
2023/07/17 04:17:04;;;;;;;7.65;7.03;;;23.10;99.90;;;;;;5083087;28;20207;-77
2023/07/17 04:19:30;;;;;;;8.43;7.75;;;23.10;99.90;;;;;;5078753;28;20243;-77
2023/07/17 04:21:57;;;;;;;7.85;7.15;;;23.10;99.90;;;;;;5079304;28;20537;-77
2023/07/17 04:24:23;;;;;;;7.78;7.18;;;23.10;99.90;;;;;;5077183;28;20168;-78
2023/07/17 04:26:50;;;;;;;8.45;7.53;;;23.10;99.90;;;;;;5076424;28;20205;-77
2023/07/17 04:29:16;;;;;;;8.23;7.50;;;23.10;99.90;;;;;;5077137;28;20194;-78
2023/07/17 04:31:42;;;;;;;8.52;7.80;;;23.10;99.90;;;;;;5090951;28;20187;-78
2023/07/17 04:34:11;;;;;;;7.97;7.38;;;23.00;99.90;;;;;;5081027;28;20199;-76
2023/07/17 04:36:37;;;;;;;8.52;7.72;;;23.00;99.90;;;;;;5081315;28;20214;-76
2023/07/17 04:39:07;;;;;;;8.38;7.68;;;23.10;99.90;;;;;;5078884;28;20200;-77
2023/07/17 04:41:32;;;;;;;8.38;7.72;;;23.10;99.90;;;;;;5081237;28;20213;-75
2023/07/17 04:43:58;;;;;;;8.57;7.78;;;23.10;99.90;;;;;;5082072;28;20167;-76
2023/07/17 04:46:24;;;;;;;8.10;7.40;;;23.00;99.90;;;;;;5080822;28;20183;-75
2023/07/17 04:48:50;;;;;;;8.57;7.88;;;23.10;99.90;;;;;;5095732;28;20167;-77
2023/07/17 04:51:16;;;;;;;8.30;7.63;;;23.00;99.90;;;;;;5087968;28;20209;-77
2023/07/17 04:53:42;;;;;;;7.70;7.10;;;22.90;99.90;;;;;;5079465;28;20226;-77
2023/07/17 04:56:12;;;;;;;7.88;7.05;;;23.10;99.90;;;;;;5079074;28;20209;-78
2023/07/17 04:58:38;;;;;;;8.57;7.70;;;23.20;99.90;;;;;;5077625;28;20193;-77
2023/07/17 05:01:05;;;;;;;7.97;7.38;;;23.20;99.90;;;;;;5075706;28;20221;-78
2023/07/17 05:03:32;;;;;;;8.80;8.00;;;23.20;99.90;;;;;;5076139;28;20258;-77
2023/07/17 05:05:58;;;;;;;8.23;7.63;;;23.40;99.90;;;;;;5076087;28;20197;-79
2023/07/17 05:08:26;;;;;;;9.60;8.23;;;23.40;99.90;;;;;;5078358;28;20163;-79
2023/07/17 05:10:58;;;;;;;8.60;7.88;;;23.40;99.90;;;;;;5075022;28;20262;-77
2023/07/17 05:13:25;;;;;;;8.73;7.93;;;23.50;99.90;;;;;;5075627;28;20250;-79
2023/07/17 05:15:51;;;;;;;9.25;8.32;;;23.70;99.90;;;;;;5075749;28;20574;-77
2023/07/17 05:18:17;;;;;;;8.13;7.53;;;23.90;99.90;;;;;;5075916;28;20171;-77
2023/07/17 05:20:44;;;;;;;8.70;8.00;;;23.90;99.90;;;;;;5080407;28;20171;-77
2023/07/17 05:23:11;;;;;;;8.80;8.07;;;23.90;99.90;;;;;;5085412;28;20171;-77
2023/07/17 05:25:37;;;;;;;8.43;7.68;;;23.90;99.90;;;;;;5074373;28;20538;-78
2023/07/17 05:28:04;;;;;;;8.55;7.50;;;24.00;99.90;;;;;;5076397;28;20190;-76
2023/07/17 05:30:33;;;;;;;7.72;7.15;;;24.10;99.90;;;;;;5074807;28;20182;-76
2023/07/17 05:32:59;;;;;;;8.30;7.50;;;24.20;99.90;;;;;;5083316;28;20185;-78
2023/07/17 05:35:25;;;;;;;8.23;7.57;;;24.30;99.90;;;;;;5086019;28;20198;-76
2023/07/17 05:37:50;;;;;;;8.25;7.55;;;24.40;99.90;;;;;;5075580;28;20163;-80
2023/07/17 05:40:16;;;;;;;8.02;7.20;;;24.40;99.90;;;;;;5074055;28;20207;-77
2023/07/17 05:42:43;;;;;;;8.40;7.53;;;24.60;99.90;;;;;;5073962;28;20776;-77
2023/07/17 05:45:09;;;;;;;8.15;7.55;;;24.70;99.90;;;;;;5073439;28;20178;-77
2023/07/17 05:47:36;;;;;;;8.90;8.00;;;24.60;99.90;;;;;;5073771;28;20175;-76
2023/07/17 05:50:03;;;;;;;8.38;7.57;;;24.70;99.90;;;;;;5076931;28;20171;-78
2023/07/17 05:52:29;;;;;;;8.18;7.40;;;24.80;99.90;;;;;;5074559;28;20171;-77
2023/07/17 05:54:54;;;;;;;8.00;7.40;;;24.80;99.90;;;;;;5073294;28;20690;-78
2023/07/17 05:57:21;;;;;;;8.20;7.50;;;24.90;99.90;;;;;;5073425;28;20233;-76
2023/07/17 05:59:47;;;;;;;7.72;7.13;;;25.00;99.90;;;;;;5073077;28;20195;-77
2023/07/17 06:02:14;;;;;;;11.30;7.78;;;25.10;99.90;;;;;;5073811;28;20177;-76
2023/07/17 06:04:40;;;;;;;9.07;8.27;;;25.20;99.90;;;;;;5073095;28;20163;-76
2023/07/17 06:07:06;;;;;;;8.23;7.43;;;25.10;99.90;;;;;;5073334;28;20209;-77
2023/07/17 06:09:34;;;;;;;8.45;7.68;;;25.10;99.90;;;;;;5073368;28;20210;-76
2023/07/17 06:12:01;;;;;;;8.25;7.63;;;25.20;99.90;;;;;;5073526;28;20590;-78
2023/07/17 06:14:27;;;;;;;9.23;8.40;;;25.30;99.90;;;;;;5075001;28;20175;-79
2023/07/17 06:16:52;;;;;;;8.43;7.72;;;25.30;99.90;;;;;;5078421;28;20175;-78
2023/07/17 06:19:18;;;;;;;7.90;7.32;;;25.30;99.90;;;;;;5073483;28;20633;-80
2023/07/17 06:21:44;;;;;;;8.75;7.95;;;25.50;99.90;;;;;;5080093;28;20182;-75
2023/07/17 06:24:10;;;;;;;9.52;8.55;;;25.60;99.90;;;;;;5088796;28;20175;-79
2023/07/17 06:26:36;;;;;;;8.75;7.95;;;25.70;99.90;;;;;;5075341;28;20167;-76
2023/07/17 06:29:06;;;;;;;9.00;8.30;;;25.70;99.90;;;;;;5074771;28;20229;-78
2023/07/17 06:31:32;;;;;;;9.00;8.10;;;25.80;99.90;;;;;;5074923;28;20167;-76
2023/07/17 06:33:57;;;;;;;9.07;7.75;;;25.90;99.90;;;;;;5076459;28;20183;-77
2023/07/17 06:36:23;;;;;;;9.43;8.68;;;26.00;99.90;;;;;;5072346;28;20688;-78
2023/07/17 06:38:49;;;;;;;8.43;7.72;;;26.00;99.90;;;;;;5086599;28;20196;-75
2023/07/17 06:41:14;;;;;;;9.38;8.48;;;26.10;99.90;;;;;;5081428;28;20179;-77
2023/07/17 06:43:43;;;;;;;9.02;8.13;;;26.10;99.90;;;;;;5073304;28;20702;-77
2023/07/17 06:46:09;;;;;;;8.32;7.53;;;26.20;99.90;;;;;;5079779;28;20179;-78
2023/07/17 06:48:35;;;;;;;9.32;8.32;;;26.30;99.90;;;;;;5076943;28;20182;-75
2023/07/17 06:51:00;;;;;;;8.82;8.02;;;26.40;99.90;;;;;;5084157;28;20174;-79
2023/07/17 06:53:26;;;;;;;8.82;7.97;;;26.50;99.90;;;;;;5079572;28;20261;-78
2023/07/17 06:56:00;;;;;;;8.40;7.68;;;26.60;99.90;;;;;;5079057;28;20274;-78
2023/07/17 06:58:26;;;;;;;8.88;7.60;;;26.70;99.90;;;;;;5079564;28;20608;-75
2023/07/17 07:00:56;;;;;;;8.70;7.88;;;26.70;99.90;;;;;;5082626;28;20171;-77
2023/07/17 07:03:23;;;;;;;8.18;7.57;;;26.80;99.90;;;;;;5087028;28;20300;-77
2023/07/17 07:06:00;;;;;;;8.38;7.57;;;26.80;99.90;;;;;;5080710;28;20182;-76
2023/07/17 07:08:27;;;;;;;7.78;7.13;;;26.90;99.90;;;;;;5090509;28;20178;-77
2023/07/17 07:10:54;;;;;;;8.10;7.50;;;27.00;99.90;;;;;;5088452;28;20738;-73
2023/07/17 07:13:21;;;;;;;8.70;7.57;;;27.00;99.90;;;;;;5096403;28;20155;-75
2023/07/17 07:15:48;;;;;;;9.57;7.45;;;27.00;99.90;;;;;;5080940;28;20266;-75
2023/07/17 07:18:14;;;;;;;8.18;7.45;;;27.10;99.90;;;;;;5078213;28;20170;-78
2023/07/17 07:20:41;;;;;;;8.25;7.50;;;27.30;99.90;;;;;;5077042;28;20177;-77
2023/07/17 07:23:08;;;;;;;8.38;7.78;;;27.40;99.90;;;;;;5076432;28;20232;-77
2023/07/17 07:25:34;;;;;;;7.72;7.10;;;27.50;99.90;;;;;;5074954;28;20175;-77
2023/07/17 07:28:00;;;;;;;7.68;6.88;;;27.60;99.90;;;;;;5075379;28;20225;-78
2023/07/17 07:30:27;;;;;;;8.25;7.53;;;27.70;99.90;;;;;;5075560;28;20187;-79
2023/07/17 07:32:52;;;;;;;9.45;7.38;;;27.80;99.90;;;;;;5075547;28;20171;-77
2023/07/17 07:35:18;;;;;;;7.03;6.53;;;27.90;99.90;;;;;;5075696;28;20203;-77
2023/07/17 07:37:44;;;;;;;7.25;6.70;;;27.90;99.90;;;;;;5076253;28;20164;-78
2023/07/17 07:40:12;;;;;;;7.63;7.03;;;27.80;99.90;;;;;;5077100;28;20174;-78
2023/07/17 07:42:42;;;;;;;7.70;7.10;;;27.80;99.90;;;;;;5075309;28;20175;-77
2023/07/17 07:45:12;;;;;;;8.13;7.43;;;27.90;99.90;;;;;;5075965;28;20171;-76
2023/07/17 07:47:39;;;;;;;7.53;6.90;;;28.00;99.90;;;;;;5075490;28;20241;-77
2023/07/17 07:50:05;;;;;;;7.30;6.80;;;28.00;99.90;;;;;;5075027;28;20637;-80
2023/07/17 07:52:31;;;;;;;6.85;6.35;;;28.10;99.90;;;;;;5075224;28;20168;-79
2023/07/17 07:54:57;;;;;;;7.63;7.03;;;28.20;99.90;;;;;;5074463;28;21008;-77
2023/07/17 07:57:23;;;;;;;7.18;6.68;;;28.20;99.90;;;;;;5075345;28;20324;-78
2023/07/17 07:59:49;;;;;;;7.28;6.68;;;28.30;99.90;;;;;;5074696;28;20693;-76
2023/07/17 08:02:17;;;;;;;7.72;6.97;;;28.40;99.90;;;;;;5072324;28;20237;-76
2023/07/17 08:04:46;;;;;;;7.22;6.70;;;28.20;99.90;;;;;;5074516;28;20661;-77
2023/07/17 08:07:12;;;;;;;6.40;6.00;;;28.20;99.90;;;;;;5074936;28;20261;-76
2023/07/17 08:09:38;;;;;;;6.93;6.32;;;28.30;99.90;;;;;;5075486;28;20915;-78
2023/07/17 08:12:04;;;;;;;6.80;6.30;;;28.40;99.90;;;;;;5075075;28;20637;-75
2023/07/17 08:14:30;;;;;;;6.32;5.55;;;28.50;99.90;;;;;;5078098;28;20258;-78
2023/07/17 08:16:56;;;;;;;6.25;5.65;;;28.60;99.90;;;;;;5081088;28;20218;-79
2023/07/17 08:19:22;;;;;;;6.80;5.90;;;28.60;99.90;;;;;;5078409;28;20171;-78
2023/07/17 08:21:47;;;;;;;6.43;5.93;;;28.70;99.90;;;;;;5076132;28;20179;-76
2023/07/17 08:24:13;;;;;;;6.78;6.30;;;28.80;99.90;;;;;;5074189;28;20851;-75
2023/07/17 08:26:40;;;;;;;6.85;6.32;;;28.70;99.90;;;;;;5074894;28;20167;-76
2023/07/17 08:29:07;;;;;;;5.90;5.50;;;28.80;99.90;;;;;;5074797;28;20657;-75
2023/07/17 08:31:33;;;;;;;6.35;5.75;;;28.80;99.90;;;;;;5074409;28;20309;-79
2023/07/17 08:34:00;;;;;;;6.82;6.25;;;28.80;99.90;;;;;;5074416;28;20181;-76
2023/07/17 08:36:27;;;;;;;5.72;5.30;;;28.90;99.90;;;;;;5074633;28;20504;-76
2023/07/17 08:38:53;;;;;;;6.75;6.28;;;28.90;99.90;;;;;;5074737;28;20166;-76
2023/07/17 08:41:20;;;;;;;5.95;5.45;;;28.90;99.90;;;;;;5090140;28;20175;-76
2023/07/17 08:43:48;;;;;;;6.85;6.25;;;28.90;99.90;;;;;;5076286;28;20593;-77
2023/07/17 08:46:13;;;;;;;6.45;5.95;;;28.90;99.90;;;;;;5074834;28;20199;-76
2023/07/17 08:48:43;;;;;;;6.38;5.80;;;28.90;99.90;;;;;;5074797;28;20587;-75
2023/07/17 08:51:10;;;;;;;6.05;5.68;;;29.00;99.90;;;;;;5076794;28;20171;-75
2023/07/17 08:53:40;;;;;;;6.45;5.82;;;29.00;99.90;;;;;;5085868;28;20242;-79
2023/07/17 08:56:11;;;;;;;10.48;7.28;;;29.10;99.90;;;;;;5075421;28;20195;-79
2023/07/17 08:58:37;;;;;;;6.90;5.80;;;28.90;99.90;;;;;;5079905;28;20155;-76
2023/07/17 09:01:03;;;;;;;6.30;5.85;;;28.90;99.90;;;;;;5075198;28;20308;-76
2023/07/17 09:03:32;;;;;;;6.75;6.25;;;28.90;99.90;;;;;;5074748;28;20202;-75
2023/07/17 09:05:59;;;;;;;6.85;6.28;;;29.00;99.90;;;;;;5075770;28;20616;-77
2023/07/17 09:08:25;;;;;;;6.70;6.18;;;29.10;99.90;;;;;;5087529;28;20171;-75
2023/07/17 09:11:08;;;;;;;6.80;6.20;;;29.10;99.90;;;;;;5076314;28;20543;-77
2023/07/17 09:13:42;;;;;;;6.90;6.30;;;29.20;99.90;;;;;;5073968;28;20167;-76
2023/07/17 09:16:19;;;;;;;6.60;6.10;;;29.20;99.90;;;;;;5076614;28;20199;-79
2023/07/17 09:18:49;;;;;;;6.35;5.88;;;29.40;99.90;;;;;;5076164;28;20162;-77
2023/07/17 09:21:19;;;;;;;9.77;6.57;;;29.30;99.90;;;;;;5077165;28;20181;-79
2023/07/17 09:23:47;;;;;;;6.65;6.15;;;29.30;99.90;;;;;;5078872;28;20159;-77
2023/07/17 09:26:20;;;;;;;6.85;6.30;;;29.40;99.90;;;;;;5081787;28;20181;-76
2023/07/17 09:28:54;;;;;;;7.10;6.38;;;29.30;99.90;;;;;;5089054;28;20195;-78
2023/07/17 09:31:30;;;;;;;6.32;5.82;;;29.20;99.90;;;;;;5079894;28;20159;-77
2023/07/17 09:34:13;;;;;;;6.68;6.07;;;29.30;99.90;;;;;;5080504;28;20200;-76
2023/07/17 09:36:39;;;;;;;6.40;6.00;;;29.30;99.90;;;;;;5083671;28;20187;-76
2023/07/17 09:39:05;;;;;;;6.43;6.00;;;29.30;99.90;;;;;;5092264;28;20186;-76
2023/07/17 09:41:31;;;;;;;7.47;6.97;;;29.40;99.90;;;;;;5093471;28;20171;-76
2023/07/17 09:44:04;;;;;;;6.95;5.85;;;29.40;99.90;;;;;;5095112;28;20286;-78
2023/07/17 09:46:38;;;;;;;7.03;6.43;;;29.50;99.90;;;;;;5095440;28;20155;-75
2023/07/17 09:49:08;;;;;;;7.65;7.05;;;29.60;99.90;;;;;;5090937;28;20181;-76
2023/07/17 09:51:34;;;;;;;7.00;6.50;;;29.60;99.90;;;;;;5089622;28;20174;-75
2023/07/17 09:54:02;;;;;;;7.00;6.50;;;29.80;99.90;;;;;;5097554;28;20231;-79
2023/07/17 09:56:30;;;;;;;6.88;6.28;;;29.80;99.90;;;;;;5095576;28;20216;-77
2023/07/17 09:59:12;;;;;;;6.43;6.03;;;29.90;99.90;;;;;;5090597;28;20167;-77
2023/07/17 10:01:43;;;;;;;7.20;6.50;;;29.90;99.90;;;;;;5081465;28;20162;-78
2023/07/17 10:04:11;;;;;;;6.80;6.20;;;29.80;99.90;;;;;;5084804;28;20553;-76
2023/07/17 10:06:38;;;;;;;7.05;6.45;;;29.80;99.90;;;;;;5088176;28;20160;-76
2023/07/17 10:09:07;;;;;;;6.85;6.25;;;29.80;99.90;;;;;;5096609;28;20171;-75
2023/07/17 10:11:33;;;;;;;7.30;6.47;;;29.70;99.90;;;;;;5085430;28;20155;-77
2023/07/17 10:14:00;;;;;;;6.65;6.25;;;29.60;99.90;;;;;;5077754;28;20191;-76
2023/07/17 10:16:27;;;;;;;6.65;6.07;;;29.60;99.90;;;;;;5078819;28;20198;-77
2023/07/17 10:18:56;;;;;;;6.80;6.40;;;29.70;99.90;;;;;;5075195;28;20178;-79
2023/07/17 10:21:22;;;;;;;6.68;6.28;;;29.80;99.90;;;;;;5090062;28;20175;-78
2023/07/17 10:23:50;;;;;;;7.10;6.50;;;30.00;99.90;;;;;;5077316;28;20189;-81
2023/07/17 10:26:20;;;;;;;7.03;6.30;;;30.20;99.90;;;;;;5078508;28;20567;-75
2023/07/17 10:28:52;;;;;;;6.13;5.75;;;30.20;99.90;;;;;;5077965;28;20186;-76
2023/07/17 10:31:20;;;;;;;6.93;6.47;;;30.30;99.90;;;;;;5082137;28;20206;-76
2023/07/17 10:33:51;;;;;;;7.43;6.78;;;30.50;99.90;;;;;;5094521;28;20167;-75
2023/07/17 10:36:18;;;;;;;6.53;6.03;;;30.60;99.90;;;;;;5077481;28;20252;-76
2023/07/17 10:38:51;;;;;;;7.00;6.50;;;30.60;99.90;;;;;;5077049;28;20175;-75
2023/07/17 10:41:17;;;;;;;6.55;6.15;;;30.60;99.90;;;;;;5076845;28;20626;-75
2023/07/17 10:43:54;;;;;;;6.68;6.18;;;30.70;99.90;;;;;;5077416;28;20224;-76
2023/07/17 10:46:26;;;;;;;6.45;5.97;;;30.70;99.90;;;;;;5076065;28;20217;-76
2023/07/17 10:48:51;;;;;;;7.38;6.63;;;30.80;99.90;;;;;;5077121;28;20518;-76
2023/07/17 10:51:17;;;;;;;6.88;6.38;;;31.00;99.90;;;;;;5076604;28;20179;-76
2023/07/17 10:53:43;;;;;;;6.28;5.78;;;31.20;99.90;;;;;;5077462;28;20278;-77
2023/07/17 10:56:09;;;;;;;6.80;6.20;;;31.50;99.90;;;;;;5079240;28;20202;-76
2023/07/17 10:58:35;;;;;;;7.47;6.78;;;31.70;99.90;;;;;;5078057;28;20183;-76
2023/07/17 11:01:06;;;;;;;6.78;6.28;;;31.80;99.90;;;;;;5077272;28;20166;-78
2023/07/17 11:03:32;;;;;;;6.80;6.30;;;32.00;99.90;;;;;;5076648;28;20170;-76
2023/07/17 11:05:58;;;;;;;6.55;6.05;;;32.20;99.90;;;;;;5079917;28;20171;-78
2023/07/17 11:08:26;;;;;;;6.30;5.70;;;32.30;99.90;;;;;;5095593;28;20171;-76
2023/07/17 11:10:53;;;;;;;6.43;5.93;;;32.40;99.90;;;;;;5087272;28;20538;-77
2023/07/17 11:13:18;;;;;;;7.65;6.45;;;32.40;99.90;;;;;;5083931;28;20175;-75
2023/07/17 11:15:44;;;;;;;6.50;6.10;;;32.30;99.90;;;;;;5077339;28;20238;-76
2023/07/17 11:18:10;;;;;;;5.95;5.57;;;31.90;99.90;;;;;;5077086;28;20289;-74
2023/07/17 11:20:37;;;;;;;6.60;6.10;;;31.80;99.90;;;;;;5076385;28;20171;-76
2023/07/17 11:23:03;;;;;;;7.32;6.60;;;31.60;99.90;;;;;;5076907;28;20256;-76
2023/07/17 11:25:30;;;;;;;6.80;6.30;;;31.40;99.90;;;;;;5076534;28;20619;-75
2023/07/17 11:27:59;;;;;;;9.98;8.95;;;31.30;99.90;;;;;;5075980;28;20182;-76
2023/07/17 11:30:29;;;;;;;9.57;7.90;;;31.20;99.90;;;;;;5075942;28;20171;-77
2023/07/17 11:33:07;;;;;;;7.60;7.00;;;31.00;99.90;;;;;;5076845;28;20167;-76
2023/07/17 11:35:47;;;;;;;7.55;6.75;;;30.80;99.90;;;;;;5077340;28;20607;-77
2023/07/17 11:38:18;;;;;;;7.03;6.53;;;30.60;99.90;;;;;;5078373;28;20710;-77
2023/07/17 11:41:05;;;;;;;7.20;6.57;;;30.30;99.90;;;;;;5079217;28;20235;-79
2023/07/17 11:43:33;;;;;;;6.93;6.30;;;30.20;99.90;;;;;;5080116;28;20159;-77
2023/07/17 11:46:04;;;;;;;7.50;6.47;;;29.80;99.90;;;;;;5089152;28;20169;-78
2023/07/17 11:48:31;;;;;;;6.30;5.80;;;28.80;99.90;;;;;;5081325;28;20665;-77
2023/07/17 11:51:00;;;;;;;5.13;4.72;;;27.20;99.90;;;;;;5078894;28;20280;-75
2023/07/17 11:53:27;;;;;;;4.50;4.10;;;26.30;99.90;;;;;;5077230;28;20356;-77
2023/07/17 11:55:53;;;;;;;4.97;4.60;;;25.90;99.90;;;;;;5077452;28;20206;-76
2023/07/17 11:58:21;;;;;;;5.00;4.60;;;25.50;99.90;;;;;;5077567;28;20163;-76
2023/07/17 12:00:52;;;;;;;4.57;4.28;;;25.30;99.90;;;;;;5090687;28;20171;-75
2023/07/17 12:03:18;;;;;;;4.47;4.18;;;25.20;99.90;;;;;;5096894;28;20159;-78
2023/07/17 12:05:44;;;;;;;4.82;4.43;;;25.00;99.90;;;;;;5080769;28;20241;-76
2023/07/17 12:08:10;;;;;;;5.63;4.45;;;25.00;99.90;;;;;;5076065;28;20531;-77
2023/07/17 12:10:36;;;;;;;5.05;4.68;;;25.00;99.90;;;;;;5076816;28;20171;-78
2023/07/17 12:13:05;;;;;;;4.88;4.57;;;25.10;99.90;;;;;;5081485;28;20167;-76
2023/07/17 12:15:31;;;;;;;4.28;4.00;;;25.10;99.90;;;;;;5084930;28;20409;-77
2023/07/17 12:17:58;;;;;;;4.40;4.10;;;25.20;99.90;;;;;;5083218;28;20179;-76
2023/07/17 12:20:24;;;;;;;4.10;3.75;;;25.10;99.90;;;;;;5078183;28;20171;-76
2023/07/17 12:22:53;;;;;;;3.85;3.60;;;24.70;99.90;;;;;;5075512;28;20164;-76
2023/07/17 12:25:19;;;;;;;3.60;3.40;;;24.60;99.90;;;;;;5075457;28;20569;-79
2023/07/17 12:27:46;;;;;;;4.13;3.58;;;24.40;99.90;;;;;;5075768;28;20228;-78
2023/07/17 12:30:16;;;;;;;3.40;3.25;;;24.40;99.90;;;;;;5075761;28;20217;-76
2023/07/17 12:32:42;;;;;;;3.75;3.50;;;24.50;99.90;;;;;;5074981;28;20199;-77
2023/07/17 12:35:09;;;;;;;3.90;3.58;;;24.50;99.90;;;;;;5074676;28;20690;-76
2023/07/17 12:37:35;;;;;;;3.20;3.00;;;24.70;99.90;;;;;;5073477;28;20180;-75
2023/07/17 12:40:02;;;;;;;3.58;3.25;;;24.80;99.90;;;;;;5073466;28;20266;-77
2023/07/17 12:42:28;;;;;;;3.10;3.00;;;24.80;99.90;;;;;;5073281;28;20186;-76
2023/07/17 12:44:55;;;;;;;3.00;2.83;;;24.90;99.90;;;;;;5075325;28;20171;-76